Time;durP1;ratioP1;P1;durP2;ratioP2;P2;SDS_P1;SDS_P2;PMS_P1;PMS_P2;Temp;Humidity;BMP_temperature;BMP_pressure;BME280_temperature;BME280_humidity;BME280_pressure;Samples;Min_cycle;Max_cycle;Signal;HPM_P1;HPM_P2
2021/01/05 00:02:21;;;;;;;9.15;7.47;;;2.50;91.40;;;;;;5050618;28;20191;-79
2021/01/05 00:04:48;;;;;;;11.30;8.18;;;2.50;91.20;;;;;;5050283;28;20204;-79
2021/01/05 00:07:14;;;;;;;9.80;8.23;;;2.50;91.30;;;;;;5050431;28;20243;-79
2021/01/05 00:09:41;;;;;;;11.50;7.47;;;2.50;91.10;;;;;;5050649;28;20661;-79
2021/01/05 00:12:09;;;;;;;11.95;7.68;;;2.50;91.20;;;;;;5051142;28;20605;-79
2021/01/05 00:14:40;;;;;;;12.68;7.95;;;2.50;91.20;;;;;;5045326;28;20247;-80
2021/01/05 00:17:06;;;;;;;11.43;7.63;;;2.50;91.30;;;;;;5049826;28;20212;-80
2021/01/05 00:19:33;;;;;;;11.23;7.95;;;2.60;91.40;;;;;;5050514;28;20215;-80
2021/01/05 00:21:59;;;;;;;13.57;8.73;;;2.60;91.20;;;;;;5050681;28;20246;-79
2021/01/05 00:24:26;;;;;;;10.40;8.70;;;2.60;91.30;;;;;;5049958;28;20683;-80
2021/01/05 00:26:52;;;;;;;17.30;10.05;;;2.40;92.10;;;;;;5050535;28;20203;-80
2021/01/05 00:29:19;;;;;;;16.10;11.52;;;2.40;92.20;;;;;;5050029;28;20212;-80
2021/01/05 00:31:46;;;;;;;15.25;10.88;;;2.50;92.20;;;;;;5050340;28;20257;-80
2021/01/05 00:34:13;;;;;;;14.07;11.27;;;2.50;92.00;;;;;;5049264;28;20248;-80
2021/01/05 00:36:39;;;;;;;17.65;11.07;;;2.40;92.00;;;;;;5050865;28;20278;-79
2021/01/05 00:39:07;;;;;;;15.98;11.10;;;2.50;92.50;;;;;;5048611;28;20680;-79
2021/01/05 00:41:34;;;;;;;16.13;11.70;;;2.40;92.10;;;;;;5050723;28;20285;-80
2021/01/05 00:44:01;;;;;;;14.63;10.77;;;2.50;92.50;;;;;;5050156;28;20207;-80
2021/01/05 00:46:27;;;;;;;17.08;12.15;;;2.50;92.50;;;;;;5050665;28;20207;-80
2021/01/05 00:48:55;;;;;;;17.42;12.93;;;2.60;92.60;;;;;;5049960;28;20215;-80
2021/01/05 00:51:21;;;;;;;14.95;12.43;;;2.30;93.00;;;;;;5050588;28;20634;-80
2021/01/05 00:53:47;;;;;;;16.52;12.30;;;2.30;93.10;;;;;;5050251;28;20262;-80
2021/01/05 00:56:14;;;;;;;16.17;11.80;;;2.30;93.00;;;;;;5050460;28;20206;-79
2021/01/05 00:58:40;;;;;;;16.85;12.73;;;2.10;93.10;;;;;;5049857;28;20316;-80
2021/01/05 01:01:07;;;;;;;13.80;11.05;;;2.30;93.30;;;;;;5050897;28;20212;-80
2021/01/05 01:03:34;;;;;;;14.45;11.30;;;2.40;93.00;;;;;;5051102;28;20212;-80
2021/01/05 01:06:01;;;;;;;21.90;13.00;;;2.50;92.80;;;;;;5050819;28;20228;-80
2021/01/05 01:08:27;;;;;;;17.52;12.40;;;2.50;92.70;;;;;;5050366;28;20196;-79
2021/01/05 01:10:54;;;;;;;16.65;11.43;;;2.50;92.60;;;;;;5050196;28;20613;-80
2021/01/05 01:13:20;;;;;;;16.35;12.20;;;2.50;92.60;;;;;;5049345;28;20254;-80
2021/01/05 01:15:46;;;;;;;16.45;11.32;;;2.50;92.70;;;;;;5053058;28;20200;-80
2021/01/05 01:18:13;;;;;;;17.13;11.57;;;2.60;92.70;;;;;;5053222;28;20208;-80
2021/01/05 01:20:39;;;;;;;19.60;12.10;;;2.60;92.60;;;;;;5054318;28;20287;-80
2021/01/05 01:23:07;;;;;;;17.58;12.63;;;2.50;92.60;;;;;;5054325;28;20229;-80
2021/01/05 01:25:33;;;;;;;15.50;11.43;;;2.60;92.80;;;;;;5054466;28;20227;-79
2021/01/05 01:27:59;;;;;;;17.83;12.38;;;2.60;92.70;;;;;;5053232;28;20220;-80
2021/01/05 01:30:26;;;;;;;18.45;12.63;;;2.60;92.70;;;;;;5054249;28;20243;-80
2021/01/05 01:32:52;;;;;;;20.00;12.93;;;2.60;92.70;;;;;;5053971;28;20344;-80
2021/01/05 01:35:19;;;;;;;20.17;13.85;;;2.60;92.70;;;;;;5052604;28;20239;-79
2021/01/05 01:37:45;;;;;;;16.17;12.50;;;2.70;92.80;;;;;;5053382;28;20622;-80
2021/01/05 01:40:19;;;;;;;21.25;13.25;;;2.60;92.80;;;;;;5052190;28;20615;-80
2021/01/05 01:42:46;;;;;;;17.60;11.77;;;2.60;93.00;;;;;;5053628;28;20317;-79
2021/01/05 01:45:23;;;;;;;20.50;13.30;;;2.60;93.10;;;;;;5052352;28;20563;-79
2021/01/05 01:47:51;;;;;;;17.98;12.88;;;2.60;93.10;;;;;;5053108;28;20261;-79
2021/01/05 01:50:28;;;;;;;18.52;13.90;;;2.60;93.40;;;;;;5052961;28;20200;-80
2021/01/05 01:53:24;;;;;;;16.60;11.55;;;2.60;93.30;;;;;;5051386;28;20265;-79
2021/01/05 01:56:02;;;;;;;17.15;11.93;;;2.60;93.20;;;;;;5053487;28;20192;-80
2021/01/05 01:58:40;;;;;;;21.23;13.07;;;2.50;93.00;;;;;;5052296;28;20203;-80
2021/01/05 02:01:17;;;;;;;23.13;13.55;;;2.50;93.30;;;;;;5052413;28;20713;-80
2021/01/05 02:04:19;;;;;;;17.80;12.68;;;2.50;93.20;;;;;;5053716;28;20211;-80
2021/01/05 02:07:11;;;;;;;20.50;12.32;;;2.60;93.20;;;;;;5052986;28;20282;-80
2021/01/05 02:09:49;;;;;;;20.77;12.63;;;2.60;93.20;;;;;;5052144;28;20246;-80
2021/01/05 02:12:25;;;;;;;16.38;10.95;;;2.50;93.10;;;;;;5052670;28;20203;-79
2021/01/05 02:15:04;;;;;;;18.35;11.80;;;2.50;93.00;;;;;;5052572;28;20246;-80
2021/01/05 02:18:06;;;;;;;17.20;10.98;;;2.60;93.20;;;;;;5051763;28;20663;-80
2021/01/05 02:20:40;;;;;;;13.90;10.05;;;2.70;93.10;;;;;;5044213;28;20200;-79
2021/01/05 02:23:18;;;;;;;14.57;9.90;;;2.60;92.80;;;;;;5052426;28;20216;-80
2021/01/05 02:25:56;;;;;;;14.85;10.43;;;2.70;92.80;;;;;;5051634;28;20249;-79
2021/01/05 02:28:29;;;;;;;15.45;9.93;;;2.60;92.70;;;;;;5051636;28;20746;-79
2021/01/05 02:31:02;;;;;;;15.25;10.55;;;2.60;92.90;;;;;;5052809;28;20788;-80
2021/01/05 02:33:40;;;;;;;14.82;11.82;;;2.70;93.00;;;;;;5052906;28;20274;-80
2021/01/05 02:36:36;;;;;;;20.85;11.20;;;2.70;93.00;;;;;;5052494;28;20689;-80
2021/01/05 02:39:27;;;;;;;14.02;10.65;;;2.80;92.90;;;;;;5052319;28;20204;-80
2021/01/05 02:42:16;;;;;;;13.20;10.68;;;2.70;92.70;;;;;;5034756;28;20254;-79
2021/01/05 02:44:51;;;;;;;15.55;10.10;;;2.70;93.10;;;;;;5042772;28;20642;-80
2021/01/05 02:47:32;;;;;;;16.85;11.63;;;2.40;93.00;;;;;;5052444;28;20360;-80
2021/01/05 02:50:10;;;;;;;17.65;12.63;;;2.50;93.70;;;;;;5051498;28;20561;-79
2021/01/05 02:53:06;;;;;;;17.48;11.63;;;2.60;93.70;;;;;;5045283;28;20191;-80
2021/01/05 02:56:12;;;;;;;16.63;11.80;;;2.70;93.70;;;;;;5084164;28;20688;-79
2021/01/05 02:59:05;;;;;;;16.55;11.35;;;2.10;93.70;;;;;;5022146;28;20269;-80
2021/01/05 03:02:27;;;;;;;20.33;12.30;;;2.30;94.40;;;;;;5051865;28;20200;-81
2021/01/05 03:04:55;;;;;;;20.52;11.70;;;2.20;94.20;;;;;;5052677;28;20215;-80
2021/01/05 03:07:27;;;;;;;20.20;12.48;;;2.30;94.40;;;;;;5052388;28;20200;-80
2021/01/05 03:10:14;;;;;;;21.55;13.35;;;2.30;94.50;;;;;;5052422;28;20623;-80
2021/01/05 03:13:05;;;;;;;19.63;13.20;;;1.80;94.50;;;;;;5053079;28;20672;-79
2021/01/05 03:15:42;;;;;;;18.35;12.98;;;1.80;95.00;;;;;;5052756;28;20207;-80
2021/01/05 03:18:18;;;;;;;16.88;12.02;;;1.90;95.60;;;;;;5052162;28;20725;-80
2021/01/05 03:20:50;;;;;;;21.45;15.30;;;1.90;95.30;;;;;;5052521;28;20199;-80
2021/01/05 03:23:18;;;;;;;18.25;11.95;;;1.90;95.70;;;;;;5052477;28;20211;-80
2021/01/05 03:25:50;;;;;;;19.30;12.93;;;1.60;95.40;;;;;;5052034;28;20200;-79
2021/01/05 03:28:22;;;;;;;18.25;12.75;;;1.60;96.10;;;;;;5051699;28;20203;-80
2021/01/05 03:31:02;;;;;;;19.88;13.57;;;1.80;96.50;;;;;;5051572;28;20200;-80
2021/01/05 03:33:29;;;;;;;24.60;12.88;;;1.40;96.10;;;;;;5052111;28;20212;-79
2021/01/05 03:35:57;;;;;;;25.00;14.93;;;1.30;97.00;;;;;;5052010;28;20662;-79
2021/01/05 03:38:24;;;;;;;22.95;14.73;;;1.40;97.30;;;;;;5051506;28;20204;-80
2021/01/05 03:40:52;;;;;;;26.15;14.70;;;1.50;97.30;;;;;;5051773;28;20773;-79
2021/01/05 03:43:19;;;;;;;23.60;15.10;;;1.40;97.30;;;;;;5051684;28;20622;-80
2021/01/05 03:45:50;;;;;;;28.80;14.88;;;1.40;97.30;;;;;;5054153;28;20192;-80
2021/01/05 03:48:18;;;;;;;25.88;14.63;;;1.70;97.90;;;;;;5071364;28;20206;-80
2021/01/05 03:50:45;;;;;;;25.13;14.52;;;1.80;97.50;;;;;;5056617;28;20203;-79
2021/01/05 03:53:13;;;;;;;24.58;14.82;;;1.70;97.00;;;;;;5050017;28;20279;-79
2021/01/05 03:55:40;;;;;;;29.60;15.45;;;1.50;97.10;;;;;;5051436;28;20192;-80
2021/01/05 03:58:09;;;;;;;25.67;15.57;;;1.50;98.20;;;;;;5050482;28;20211;-79
2021/01/05 04:00:37;;;;;;;23.02;14.88;;;1.40;97.80;;;;;;5051378;28;20200;-79
2021/01/05 04:03:05;;;;;;;26.50;16.23;;;1.70;98.10;;;;;;5051956;28;20230;-79
2021/01/05 04:05:34;;;;;;;30.33;16.83;;;1.70;97.70;;;;;;5051778;28;20257;-79
2021/01/05 04:08:03;;;;;;;27.30;16.83;;;1.90;97.90;;;;;;5050964;28;20254;-79
2021/01/05 04:10:32;;;;;;;27.17;16.77;;;1.80;97.20;;;;;;5050866;28;20767;-79
2021/01/05 04:12:59;;;;;;;26.52;15.75;;;1.80;97.90;;;;;;5051356;28;20227;-79
2021/01/05 04:15:28;;;;;;;25.98;15.73;;;2.00;97.80;;;;;;5051912;28;20258;-80
2021/01/05 04:17:59;;;;;;;30.85;17.20;;;2.20;97.40;;;;;;5050841;28;20188;-80
2021/01/05 04:20:30;;;;;;;26.80;16.60;;;2.20;97.10;;;;;;5051649;28;20203;-79
2021/01/05 04:22:58;;;;;;;28.90;16.65;;;2.10;96.80;;;;;;5051249;28;20691;-79
2021/01/05 04:25:29;;;;;;;25.30;16.02;;;2.10;96.80;;;;;;5051605;28;20231;-80
2021/01/05 04:27:56;;;;;;;21.83;14.90;;;2.00;96.80;;;;;;5051218;28;20192;-80
2021/01/05 04:30:27;;;;;;;25.50;17.35;;;1.90;97.10;;;;;;5051375;28;20196;-80
2021/01/05 04:32:57;;;;;;;26.35;16.20;;;2.20;97.30;;;;;;5051566;28;20192;-80
2021/01/05 04:35:26;;;;;;;27.88;17.42;;;2.20;96.80;;;;;;5050318;28;20258;-80
2021/01/05 04:37:55;;;;;;;29.90;16.55;;;1.90;97.30;;;;;;5050946;28;20688;-79
2021/01/05 04:40:28;;;;;;;25.77;16.67;;;2.00;97.40;;;;;;5051097;28;20196;-80
2021/01/05 04:43:19;;;;;;;23.17;15.18;;;2.00;97.60;;;;;;5051686;28;20196;-79
2021/01/05 04:46:17;;;;;;;29.20;17.00;;;2.00;97.10;;;;;;5050107;28;20752;-80
2021/01/05 04:48:55;;;;;;;21.83;15.10;;;2.10;97.30;;;;;;5050310;28;20226;-80
2021/01/05 04:51:35;;;;;;;27.02;17.58;;;2.00;97.50;;;;;;5035939;28;20303;-79
2021/01/05 04:54:10;;;;;;;27.60;16.42;;;2.10;97.60;;;;;;5047896;28;20230;-80
2021/01/05 04:56:49;;;;;;;26.67;16.00;;;2.40;97.60;;;;;;5055715;28;20211;-79
2021/01/05 04:59:18;;;;;;;31.88;16.73;;;2.30;97.20;;;;;;5054852;28;20665;-79
2021/01/05 05:01:49;;;;;;;25.25;17.00;;;2.50;97.00;;;;;;5055110;28;20200;-79
2021/01/05 05:04:27;;;;;;;25.13;16.35;;;2.60;96.80;;;;;;5054600;28;20625;-79
2021/01/05 05:07:04;;;;;;;29.38;17.40;;;2.50;96.60;;;;;;5054402;28;20341;-80
2021/01/05 05:09:45;;;;;;;25.23;16.17;;;2.30;96.60;;;;;;5054601;28;20623;-80
2021/01/05 05:12:36;;;;;;;28.13;15.70;;;2.30;97.20;;;;;;5055003;28;20302;-80
2021/01/05 05:15:16;;;;;;;23.52;15.30;;;2.40;97.20;;;;;;5053542;28;20208;-80
2021/01/05 05:17:57;;;;;;;28.42;17.63;;;2.50;97.20;;;;;;5054523;28;20212;-80
2021/01/05 05:20:42;;;;;;;30.10;16.90;;;2.00;97.00;;;;;;5054907;28;20568;-80
2021/01/05 05:23:30;;;;;;;27.75;16.70;;;2.30;97.80;;;;;;5054383;28;20206;-80
2021/01/05 05:26:05;;;;;;;24.48;16.00;;;2.00;97.30;;;;;;5054423;28;20195;-80
2021/01/05 05:28:39;;;;;;;30.55;17.75;;;2.10;98.10;;;;;;5053854;28;20195;-79
2021/01/05 05:31:12;;;;;;;30.50;17.52;;;1.90;97.90;;;;;;5053440;28;20211;-80
2021/01/05 05:33:41;;;;;;;22.40;15.20;;;1.80;99.00;;;;;;5054231;28;20208;-80
2021/01/05 05:36:47;;;;;;;28.43;21.00;;;1.70;99.20;;;;;;5053414;28;20792;-80
2021/01/05 05:39:41;;;;;;;27.08;18.85;;;2.20;99.50;;;;;;5053777;28;21045;-80
2021/01/05 05:42:27;;;;;;;29.27;17.73;;;2.30;98.80;;;;;;5053976;28;20251;-80
2021/01/05 05:45:05;;;;;;;26.77;16.88;;;2.40;98.50;;;;;;5053976;28;20257;-80
2021/01/05 05:47:39;;;;;;;31.08;18.20;;;2.50;98.60;;;;;;5053667;28;20196;-80
2021/01/05 05:50:14;;;;;;;25.15;16.10;;;1.90;98.00;;;;;;5053730;28;20231;-80
2021/01/05 05:52:49;;;;;;;28.30;17.10;;;2.00;99.40;;;;;;5054443;28;20199;-81
2021/01/05 05:55:24;;;;;;;26.77;17.50;;;2.20;99.40;;;;;;5053331;28;20285;-81
2021/01/05 05:57:57;;;;;;;30.50;19.63;;;2.40;99.20;;;;;;5053466;28;20286;-80
2021/01/05 06:00:36;;;;;;;27.40;17.83;;;2.50;98.80;;;;;;5053351;28;20199;-81
2021/01/05 06:03:05;;;;;;;24.95;17.48;;;2.50;98.60;;;;;;5054004;28;20225;-80
2021/01/05 06:05:36;;;;;;;27.30;17.15;;;2.50;98.70;;;;;;5054116;28;20677;-81
2021/01/05 06:08:06;;;;;;;26.13;16.50;;;2.50;98.50;;;;;;5053806;28;20261;-80
2021/01/05 06:10:35;;;;;;;26.42;16.67;;;2.50;98.30;;;;;;5053110;28;20295;-81
2021/01/05 06:13:04;;;;;;;30.42;19.27;;;2.50;98.60;;;;;;5054229;28;20200;-80
2021/01/05 06:15:33;;;;;;;30.15;17.25;;;2.50;98.60;;;;;;5053231;28;20227;-80
2021/01/05 06:18:02;;;;;;;26.23;16.35;;;2.40;98.30;;;;;;5053269;28;20189;-80
2021/01/05 06:20:30;;;;;;;28.08;19.10;;;2.40;98.90;;;;;;5053723;28;20212;-80
2021/01/05 06:23:03;;;;;;;29.88;18.23;;;2.60;98.90;;;;;;5053474;28;20188;-80
2021/01/05 06:25:31;;;;;;;26.75;17.48;;;2.60;98.20;;;;;;5053720;28;20287;-81
2021/01/05 06:27:58;;;;;;;29.40;19.00;;;2.40;98.30;;;;;;5046842;28;20218;-81
2021/01/05 06:30:32;;;;;;;33.95;17.85;;;1.80;98.60;;;;;;5047702;28;20238;-81
2021/01/05 06:33:01;;;;;;;25.38;18.23;;;1.70;99.90;;;;;;5051203;28;20202;-81
2021/01/05 06:35:30;;;;;;;28.17;18.67;;;2.00;99.90;;;;;;5052788;28;20608;-81
2021/01/05 06:37:58;;;;;;;30.10;19.67;;;2.30;99.90;;;;;;5051867;28;20250;-81
2021/01/05 06:40:27;;;;;;;24.98;16.98;;;2.00;99.60;;;;;;5051985;28;20580;-81
2021/01/05 06:42:58;;;;;;;27.95;17.27;;;2.10;99.80;;;;;;5049651;28;20198;-81
2021/01/05 06:45:27;;;;;;;31.92;18.30;;;2.30;99.90;;;;;;5053249;28;20192;-81
2021/01/05 06:47:55;;;;;;;28.15;18.40;;;2.50;99.70;;;;;;5048763;28;20200;-81
2021/01/05 06:50:31;;;;;;;26.92;17.45;;;2.60;99.00;;;;;;5052905;28;20726;-81
2021/01/05 06:53:03;;;;;;;29.15;18.33;;;2.50;98.70;;;;;;5053014;28;20208;-82
2021/01/05 06:55:31;;;;;;;26.77;19.52;;;2.50;98.70;;;;;;5053325;28;20713;-81
2021/01/05 06:58:15;;;;;;;28.45;18.92;;;2.20;98.70;;;;;;5052261;28;20772;-81
2021/01/05 07:00:48;;;;;;;25.48;16.88;;;2.30;99.40;;;;;;5050698;28;20248;-81
2021/01/05 07:03:22;;;;;;;25.67;18.95;;;2.20;99.30;;;;;;5051282;28;20204;-81
2021/01/05 07:05:56;;;;;;;29.52;17.98;;;1.90;99.70;;;;;;5052438;28;20199;-81
2021/01/05 07:08:25;;;;;;;29.55;18.45;;;2.20;99.90;;;;;;5051988;28;20233;-82
2021/01/05 07:10:57;;;;;;;28.70;16.85;;;2.40;99.90;;;;;;5053212;28;20204;-81
2021/01/05 07:13:27;;;;;;;26.95;18.42;;;2.50;99.60;;;;;;5052922;28;20199;-82
2021/01/05 07:15:56;;;;;;;26.75;17.90;;;2.40;99.40;;;;;;5052591;28;20259;-82
2021/01/05 07:18:24;;;;;;;23.88;17.05;;;2.10;99.40;;;;;;5052974;28;20202;-80
2021/01/05 07:20:52;;;;;;;25.75;16.33;;;2.20;99.90;;;;;;5047821;28;20234;-81
2021/01/05 07:23:23;;;;;;;24.77;16.15;;;2.20;99.80;;;;;;5052073;28;20231;-81
2021/01/05 07:25:52;;;;;;;26.40;17.13;;;2.30;99.90;;;;;;5052114;28;20718;-81
2021/01/05 07:28:25;;;;;;;28.73;17.70;;;2.50;99.90;;;;;;5050578;28;20200;-81
2021/01/05 07:31:02;;;;;;;25.45;16.60;;;2.50;99.70;;;;;;5052180;28;20636;-81
2021/01/05 07:33:43;;;;;;;28.35;17.23;;;2.30;99.20;;;;;;5051341;28;20196;-81
2021/01/05 07:36:25;;;;;;;30.92;18.10;;;2.20;99.80;;;;;;5052591;28;20191;-81
2021/01/05 07:39:13;;;;;;;27.65;17.00;;;2.30;99.90;;;;;;5051736;28;20544;-81
2021/01/05 07:41:53;;;;;;;28.35;17.20;;;2.50;99.90;;;;;;5052047;28;20557;-81
2021/01/05 07:44:25;;;;;;;27.42;17.27;;;2.40;99.00;;;;;;5051793;28;20203;-81
2021/01/05 07:47:02;;;;;;;29.60;16.88;;;2.40;99.70;;;;;;5051860;28;20191;-81
2021/01/05 07:49:44;;;;;;;21.40;15.32;;;2.40;99.40;;;;;;5051992;28;20279;-81
2021/01/05 07:52:31;;;;;;;26.15;16.63;;;2.00;99.90;;;;;;5052358;28;20191;-81
2021/01/05 07:55:10;;;;;;;24.45;15.25;;;1.90;99.90;;;;;;5051527;28;20580;-81
2021/01/05 07:57:45;;;;;;;34.10;18.30;;;2.10;99.90;;;;;;5051183;28;20203;-82
2021/01/05 08:00:15;;;;;;;25.88;16.88;;;2.10;99.90;;;;;;5052227;28;20200;-82
2021/01/05 08:02:44;;;;;;;28.15;18.92;;;2.00;99.90;;;;;;5054227;28;20565;-82
2021/01/05 08:05:19;;;;;;;27.27;17.67;;;2.20;99.90;;;;;;5053791;28;20211;-82
2021/01/05 08:07:55;;;;;;;28.73;17.10;;;2.50;99.90;;;;;;5051486;28;20640;-81
2021/01/05 08:10:29;;;;;;;25.58;16.08;;;2.40;99.90;;;;;;5053036;28;20653;-81
2021/01/05 08:13:06;;;;;;;27.63;18.27;;;2.40;99.90;;;;;;5053104;28;20278;-82
2021/01/05 08:15:41;;;;;;;26.30;18.65;;;2.50;99.90;;;;;;5052645;28;20223;-82
2021/01/05 08:18:10;;;;;;;27.08;17.10;;;2.60;99.90;;;;;;5053506;28;20199;-82
2021/01/05 08:20:49;;;;;;;24.80;17.48;;;2.50;99.80;;;;;;5052549;28;20199;-81
2021/01/05 08:23:24;;;;;;;25.92;15.88;;;2.60;99.90;;;;;;5052334;28;20563;-82
2021/01/05 08:26:02;;;;;;;23.23;15.48;;;2.40;99.90;;;;;;5033523;28;20193;-82
2021/01/05 08:28:36;;;;;;;22.50;15.93;;;2.00;99.90;;;;;;5043412;28;20191;-82
2021/01/05 08:31:14;;;;;;;25.65;16.88;;;2.30;99.90;;;;;;5050450;28;20203;-81
2021/01/05 08:33:50;;;;;;;25.27;16.27;;;2.00;99.90;;;;;;5053860;28;20718;-81
2021/01/05 08:36:28;;;;;;;20.98;15.23;;;2.30;99.90;;;;;;5051820;28;20260;-81
2021/01/05 08:39:07;;;;;;;24.00;15.15;;;2.40;99.90;;;;;;5052233;28;20200;-81
2021/01/05 08:41:42;;;;;;;24.20;16.30;;;2.60;99.90;;;;;;5053662;28;20531;-82
2021/01/05 08:44:17;;;;;;;21.80;16.20;;;2.60;99.90;;;;;;5053459;28;20219;-82
2021/01/05 08:46:59;;;;;;;23.35;15.60;;;2.70;99.90;;;;;;5053016;28;20222;-82
2021/01/05 08:49:38;;;;;;;36.97;24.88;;;2.70;99.90;;;;;;5051324;28;20187;-82
2021/01/05 08:52:22;;;;;;;19.15;14.30;;;2.80;99.90;;;;;;5053496;28;20591;-81
2021/01/05 08:54:57;;;;;;;22.92;15.30;;;2.60;99.90;;;;;;5052717;28;20749;-82
2021/01/05 08:57:37;;;;;;;22.00;15.50;;;2.70;99.90;;;;;;5034061;28;20250;-83
2021/01/05 09:00:20;;;;;;;21.65;14.27;;;2.70;99.90;;;;;;5051086;28;20790;-82
2021/01/05 09:02:56;;;;;;;20.95;15.18;;;2.70;99.90;;;;;;5052028;28;20200;-82
2021/01/05 09:05:43;;;;;;;22.95;13.85;;;2.30;99.90;;;;;;5051747;28;20648;-82
2021/01/05 09:08:21;;;;;;;19.45;14.07;;;2.00;99.90;;;;;;5051425;28;20594;-82
2021/01/05 09:11:08;;;;;;;23.20;15.35;;;2.00;99.90;;;;;;5052415;28;20239;-82
2021/01/05 09:13:44;;;;;;;23.98;15.05;;;2.20;99.90;;;;;;5050679;28;20203;-82
2021/01/05 09:16:26;;;;;;;19.90;14.77;;;2.50;99.90;;;;;;5052197;28;20204;-81
2021/01/05 09:19:07;;;;;;;20.42;14.70;;;2.40;99.90;;;;;;5052212;28;20204;-82
2021/01/05 09:21:47;;;;;;;20.15;15.05;;;2.50;99.90;;;;;;5052179;28;20683;-82
2021/01/05 09:24:33;;;;;;;19.52;15.02;;;2.70;99.90;;;;;;5051990;28;20267;-82
2021/01/05 09:27:11;;;;;;;21.90;15.05;;;2.80;99.90;;;;;;5050376;28;20206;-82
2021/01/05 09:29:48;;;;;;;20.25;15.20;;;3.00;99.90;;;;;;5051136;28;20282;-82
2021/01/05 09:32:34;;;;;;;22.30;15.57;;;3.00;99.90;;;;;;5050231;28;20273;-82
2021/01/05 09:35:10;;;;;;;20.77;16.40;;;3.00;99.90;;;;;;5044366;28;20207;-82
2021/01/05 09:37:43;;;;;;;21.67;14.18;;;2.70;99.90;;;;;;5053925;28;20310;-82
2021/01/05 09:40:20;;;;;;;21.70;15.05;;;2.80;99.90;;;;;;5055096;28;20257;-82
2021/01/05 09:43:04;;;;;;;20.48;16.08;;;2.90;99.90;;;;;;5053743;28;20196;-82
2021/01/05 09:45:49;;;;;;;24.02;14.30;;;3.20;99.90;;;;;;5054472;28;20740;-82
2021/01/05 09:48:24;;;;;;;22.25;15.10;;;2.80;99.10;;;;;;5056055;28;20222;-82
2021/01/05 09:50:56;;;;;;;19.80;15.25;;;2.80;99.90;;;;;;5054296;28;20604;-82
2021/01/05 09:53:38;;;;;;;20.02;16.20;;;3.00;99.90;;;;;;5055932;28;20207;-82
2021/01/05 09:56:13;;;;;;;28.52;15.60;;;3.10;99.90;;;;;;5036302;28;20200;-82
2021/01/05 09:58:50;;;;;;;22.50;14.02;;;3.10;99.50;;;;;;5036906;28;20200;-82
2021/01/05 10:01:26;;;;;;;21.38;13.80;;;3.10;99.90;;;;;;5049708;28;20208;-82
2021/01/05 10:04:03;;;;;;;24.83;17.85;;;3.20;99.90;;;;;;5055740;28;20716;-82
2021/01/05 10:06:41;;;;;;;23.27;15.68;;;3.30;99.70;;;;;;5055516;28;20192;-82
2021/01/05 10:09:19;;;;;;;24.20;15.52;;;3.40;99.50;;;;;;5056178;28;20202;-82
2021/01/05 10:11:54;;;;;;;21.75;14.05;;;3.50;99.00;;;;;;5056039;28;20199;-82
2021/01/05 10:14:25;;;;;;;20.20;12.80;;;3.60;98.70;;;;;;5055857;28;20285;-82
2021/01/05 10:16:59;;;;;;;22.13;15.60;;;3.60;98.50;;;;;;5054343;28;20222;-82
2021/01/05 10:19:29;;;;;;;23.02;14.85;;;3.60;98.30;;;;;;5055330;28;20976;-82
2021/01/05 10:22:05;;;;;;;19.77;14.23;;;4.00;98.50;;;;;;5056564;28;20192;-82
2021/01/05 10:24:43;;;;;;;24.75;14.90;;;3.60;98.30;;;;;;5056007;28;20200;-84
2021/01/05 10:27:14;;;;;;;24.65;15.75;;;3.40;98.50;;;;;;5054379;28;20413;-82
2021/01/05 10:29:52;;;;;;;20.40;14.88;;;3.50;98.70;;;;;;5052457;28;20611;-82
2021/01/05 10:32:25;;;;;;;24.05;15.27;;;3.70;98.60;;;;;;5054348;28;20204;-82
2021/01/05 10:34:57;;;;;;;26.00;16.05;;;3.70;98.20;;;;;;5052997;28;20315;-82
2021/01/05 10:37:29;;;;;;;22.88;14.82;;;3.30;97.90;;;;;;5053539;28;20227;-82
2021/01/05 10:40:01;;;;;;;22.55;15.45;;;3.00;98.90;;;;;;5052753;28;20188;-83
2021/01/05 10:42:39;;;;;;;18.63;15.27;;;3.00;99.60;;;;;;5054024;28;20242;-82
2021/01/05 10:45:14;;;;;;;21.83;15.48;;;3.30;99.70;;;;;;5054447;28;20211;-82
2021/01/05 10:47:49;;;;;;;23.23;15.55;;;3.60;99.50;;;;;;5051054;28;20673;-82
2021/01/05 10:50:22;;;;;;;34.30;21.25;;;3.40;98.80;;;;;;5054446;28;20334;-82
2021/01/05 10:52:53;;;;;;;22.05;15.70;;;3.30;98.90;;;;;;5055235;28;20199;-83
2021/01/05 10:55:21;;;;;;;20.08;14.50;;;4.00;99.30;;;;;;5054761;28;20280;-82
2021/01/05 10:57:52;;;;;;;23.33;15.82;;;3.70;98.90;;;;;;5054508;28;20204;-82
2021/01/05 11:00:20;;;;;;;21.98;14.40;;;3.80;98.50;;;;;;5054659;28;20204;-82
2021/01/05 11:02:47;;;;;;;23.10;15.63;;;3.90;98.20;;;;;;5053796;28;20215;-82
2021/01/05 11:05:15;;;;;;;23.52;14.77;;;3.90;97.90;;;;;;5053265;28;20254;-82
2021/01/05 11:07:43;;;;;;;19.83;13.43;;;3.90;97.80;;;;;;5052729;28;20259;-81
2021/01/05 11:10:11;;;;;;;23.92;15.82;;;3.90;97.60;;;;;;5052092;28;20207;-82
2021/01/05 11:12:38;;;;;;;27.73;16.30;;;3.80;97.60;;;;;;5053209;28;20200;-81
2021/01/05 11:15:07;;;;;;;18.33;14.52;;;3.10;98.00;;;;;;5053053;28;20220;-81
2021/01/05 11:17:33;;;;;;;21.75;14.43;;;2.90;98.90;;;;;;5051782;28;20196;-81
2021/01/05 11:20:00;;;;;;;21.85;14.02;;;3.00;99.90;;;;;;5052381;28;20176;-81
2021/01/05 11:22:26;;;;;;;19.38;14.73;;;3.30;99.90;;;;;;5053060;28;20200;-82
2021/01/05 11:24:53;;;;;;;18.83;14.80;;;3.20;99.10;;;;;;5052843;28;20204;-82
2021/01/05 11:27:19;;;;;;;23.70;15.27;;;2.70;99.70;;;;;;5053866;28;20550;-81
2021/01/05 11:29:47;;;;;;;21.48;15.02;;;3.10;99.90;;;;;;5054487;28;20196;-82
2021/01/05 11:32:18;;;;;;;24.10;14.80;;;3.40;99.90;;;;;;5053837;28;20218;-82
2021/01/05 11:34:48;;;;;;;28.88;17.00;;;3.60;99.80;;;;;;5054171;28;20228;-82
2021/01/05 11:37:16;;;;;;;20.38;15.32;;;3.60;99.10;;;;;;5052958;28;20192;-82
2021/01/05 11:39:46;;;;;;;22.90;14.70;;;3.50;99.00;;;;;;5054415;28;20279;-81
2021/01/05 11:42:15;;;;;;;23.00;14.45;;;3.60;99.10;;;;;;5054173;28;20196;-82
2021/01/05 11:44:46;;;;;;;20.83;13.95;;;3.80;98.80;;;;;;5053264;28;20347;-82
2021/01/05 11:47:13;;;;;;;17.50;13.60;;;3.90;98.10;;;;;;5052955;28;20238;-81
2021/01/05 11:49:40;;;;;;;21.50;15.07;;;4.00;97.60;;;;;;5053371;28;20192;-82
2021/01/05 11:52:07;;;;;;;20.65;15.80;;;4.00;97.30;;;;;;5053659;28;20200;-81
2021/01/05 11:54:33;;;;;;;24.52;15.70;;;3.90;97.10;;;;;;5052763;28;20219;-82
2021/01/05 11:57:00;;;;;;;20.83;14.77;;;3.90;97.30;;;;;;5051841;28;20200;-83
2021/01/05 11:59:28;;;;;;;19.15;14.07;;;4.00;97.40;;;;;;5050926;28;20196;-82
2021/01/05 12:01:55;;;;;;;21.67;14.20;;;4.00;97.20;;;;;;5052559;28;20286;-82
2021/01/05 12:04:22;;;;;;;19.60;14.43;;;3.50;97.50;;;;;;5052002;28;20204;-82
2021/01/05 12:06:50;;;;;;;20.73;14.63;;;3.60;98.50;;;;;;5052830;28;20196;-82
2021/01/05 12:09:19;;;;;;;22.55;14.20;;;3.70;98.40;;;;;;5052393;28;20199;-81
2021/01/05 12:11:45;;;;;;;18.17;14.05;;;3.90;98.10;;;;;;5052735;28;20227;-82
2021/01/05 12:14:14;;;;;;;20.13;15.45;;;4.10;97.80;;;;;;5053083;28;20208;-82
2021/01/05 12:16:43;;;;;;;24.42;15.20;;;4.10;97.50;;;;;;5053480;28;20542;-81
2021/01/05 12:19:12;;;;;;;24.98;15.00;;;4.10;97.10;;;;;;5054702;28;20196;-82
2021/01/05 12:21:40;;;;;;;24.27;14.90;;;4.10;97.00;;;;;;5054853;28;20192;-82
2021/01/05 12:24:12;;;;;;;21.77;14.57;;;4.00;96.90;;;;;;5053844;28;20591;-82
2021/01/05 12:26:40;;;;;;;21.67;14.35;;;4.00;96.80;;;;;;5053772;28;20196;-82
2021/01/05 12:29:11;;;;;;;18.27;14.13;;;3.90;97.10;;;;;;5051891;28;20204;-82
2021/01/05 12:31:40;;;;;;;20.27;14.95;;;3.90;97.40;;;;;;5053757;28;20295;-82
2021/01/05 12:34:07;;;;;;;20.20;15.27;;;3.90;97.20;;;;;;5051836;28;20219;-82
2021/01/05 12:36:36;;;;;;;23.65;14.93;;;3.90;97.20;;;;;;5052510;28;20269;-82
2021/01/05 12:39:07;;;;;;;22.75;14.05;;;4.00;97.10;;;;;;5052849;28;20270;-82
2021/01/05 12:41:39;;;;;;;19.80;15.50;;;4.00;97.10;;;;;;5052608;28;20279;-82
2021/01/05 12:44:08;;;;;;;18.95;14.25;;;4.00;97.00;;;;;;5053588;28;20533;-82
2021/01/05 12:46:37;;;;;;;23.80;14.75;;;4.10;97.20;;;;;;5053382;28;20196;-82
2021/01/05 12:49:05;;;;;;;18.20;13.70;;;4.10;97.10;;;;;;5052364;28;20192;-82
2021/01/05 12:51:34;;;;;;;19.02;12.60;;;4.10;97.00;;;;;;5053012;28;20287;-82
2021/01/05 12:54:01;;;;;;;21.40;15.13;;;4.10;97.10;;;;;;5052487;28;20253;-82
2021/01/05 12:56:28;;;;;;;22.73;14.48;;;4.10;96.90;;;;;;5052812;28;20211;-82
2021/01/05 12:58:55;;;;;;;19.83;13.57;;;4.10;96.80;;;;;;5049773;28;20214;-81
2021/01/05 13:01:22;;;;;;;22.65;15.35;;;3.90;96.90;;;;;;5052266;28;20567;-81
2021/01/05 13:03:49;;;;;;;27.77;16.52;;;3.90;97.20;;;;;;5051879;28;20202;-82
2021/01/05 13:06:16;;;;;;;24.42;15.80;;;3.90;97.20;;;;;;5058269;28;20195;-82
2021/01/05 13:08:44;;;;;;;19.13;14.07;;;3.90;97.30;;;;;;5071289;28;20196;-82
2021/01/05 13:11:13;;;;;;;23.02;15.60;;;3.90;97.30;;;;;;5055330;28;20208;-82